sensor_id;sensor_type;location;lat;lon;timestamp;temperature;humidity
67186;HTU21D;54116;53.518;49.398;2023-03-21T00:01:56;-1.74;118.99
67186;HTU21D;54116;53.518;49.398;2023-03-21T00:04:25;-1.75;118.99
67186;HTU21D;54116;53.518;49.398;2023-03-21T00:06:52;-1.79;118.99
67186;HTU21D;54116;53.518;49.398;2023-03-21T00:09:19;-1.85;118.99
67186;HTU21D;54116;53.518;49.398;2023-03-21T00:11:48;-1.93;118.99
67186;HTU21D;54116;53.518;49.398;2023-03-21T00:14:14;-1.99;118.99
67186;HTU21D;54116;53.518;49.398;2023-03-21T00:16:45;-2.04;118.99
67186;HTU21D;54116;53.518;49.398;2023-03-21T00:19:16;-2.04;118.99
67186;HTU21D;54116;53.518;49.398;2023-03-21T00:21:44;-2.07;118.99
67186;HTU21D;54116;53.518;49.398;2023-03-21T00:24:11;-2.08;118.99
67186;HTU21D;54116;53.518;49.398;2023-03-21T00:26:38;-2.02;118.99
67186;HTU21D;54116;53.518;49.398;2023-03-21T00:29:04;-2.01;118.99
67186;HTU21D;54116;53.518;49.398;2023-03-21T00:31:31;-2.01;118.99
67186;HTU21D;54116;53.518;49.398;2023-03-21T00:33:57;-1.89;118.99
67186;HTU21D;54116;53.518;49.398;2023-03-21T00:36:23;-1.79;118.99
67186;HTU21D;54116;53.518;49.398;2023-03-21T00:38:51;-1.76;118.99
67186;HTU21D;54116;53.518;49.398;2023-03-21T00:41:17;-1.80;118.99
67186;HTU21D;54116;53.518;49.398;2023-03-21T00:43:43;-1.86;118.99
67186;HTU21D;54116;53.518;49.398;2023-03-21T00:46:09;-1.92;118.99
67186;HTU21D;54116;53.518;49.398;2023-03-21T00:48:36;-2.02;118.99
67186;HTU21D;54116;53.518;49.398;2023-03-21T00:51:16;-2.02;118.99
67186;HTU21D;54116;53.518;49.398;2023-03-21T00:53:46;-2.04;118.99
67186;HTU21D;54116;53.518;49.398;2023-03-21T00:56:12;-2.03;118.99
67186;HTU21D;54116;53.518;49.398;2023-03-21T00:58:38;-2.05;118.99
67186;HTU21D;54116;53.518;49.398;2023-03-21T01:01:05;-2.09;118.99
67186;HTU21D;54116;53.518;49.398;2023-03-21T01:03:32;-2.15;118.99
67186;HTU21D;54116;53.518;49.398;2023-03-21T01:06:10;-2.15;118.99
67186;HTU21D;54116;53.518;49.398;2023-03-21T01:08:40;-2.19;118.99
67186;HTU21D;54116;53.518;49.398;2023-03-21T01:11:10;-2.28;118.99
67186;HTU21D;54116;53.518;49.398;2023-03-21T01:13:37;-2.36;118.99
67186;HTU21D;54116;53.518;49.398;2023-03-21T01:16:05;-2.41;118.99
67186;HTU21D;54116;53.518;49.398;2023-03-21T01:18:33;-2.46;118.99
67186;HTU21D;54116;53.518;49.398;2023-03-21T01:21:00;-2.50;118.99
67186;HTU21D;54116;53.518;49.398;2023-03-21T01:23:28;-2.48;118.99
67186;HTU21D;54116;53.518;49.398;2023-03-21T01:25:55;-2.51;118.99
67186;HTU21D;54116;53.518;49.398;2023-03-21T01:28:24;-2.52;118.99
67186;HTU21D;54116;53.518;49.398;2023-03-21T01:30:51;-2.50;118.99
67186;HTU21D;54116;53.518;49.398;2023-03-21T01:33:19;-2.48;118.99
67186;HTU21D;54116;53.518;49.398;2023-03-21T01:35:46;-2.42;118.99
67186;HTU21D;54116;53.518;49.398;2023-03-21T01:38:12;-2.42;118.99
67186;HTU21D;54116;53.518;49.398;2023-03-21T01:40:39;-2.44;118.99
67186;HTU21D;54116;53.518;49.398;2023-03-21T01:43:20;-2.46;118.99
67186;HTU21D;54116;53.518;49.398;2023-03-21T01:48:39;-2.47;118.99
67186;HTU21D;54116;53.518;49.398;2023-03-21T01:51:10;-2.50;118.99
67186;HTU21D;54116;53.518;49.398;2023-03-21T01:53:38;-2.49;118.99
67186;HTU21D;54116;53.518;49.398;2023-03-21T01:56:42;-2.48;118.99
67186;HTU21D;54116;53.518;49.398;2023-03-21T01:59:16;-2.51;118.99
67186;HTU21D;54116;53.518;49.398;2023-03-21T02:01:48;-2.48;118.99
67186;HTU21D;54116;53.518;49.398;2023-03-21T02:04:16;-2.49;118.99
67186;HTU21D;54116;53.518;49.398;2023-03-21T02:06:55;-2.47;118.99
67186;HTU21D;54116;53.518;49.398;2023-03-21T02:09:24;-2.42;118.99
67186;HTU21D;54116;53.518;49.398;2023-03-21T02:11:53;-2.30;118.99
67186;HTU21D;54116;53.518;49.398;2023-03-21T02:14:20;-2.09;118.99
67186;HTU21D;54116;53.518;49.398;2023-03-21T02:16:51;-1.82;118.99
67186;HTU21D;54116;53.518;49.398;2023-03-21T02:27:19;-1.16;118.99
67186;HTU21D;54116;53.518;49.398;2023-03-21T02:35:33;-1.04;118.99
67186;HTU21D;54116;53.518;49.398;2023-03-21T02:41:03;-1.04;118.99
67186;HTU21D;54116;53.518;49.398;2023-03-21T02:43:56;-1.00;118.99
67186;HTU21D;54116;53.518;49.398;2023-03-21T02:46:36;-1.01;118.99
67186;HTU21D;54116;53.518;49.398;2023-03-21T02:49:26;-0.94;118.99
67186;HTU21D;54116;53.518;49.398;2023-03-21T02:51:57;-0.85;118.99
67186;HTU21D;54116;53.518;49.398;2023-03-21T02:54:25;-0.79;118.99
67186;HTU21D;54116;53.518;49.398;2023-03-21T02:56:54;-0.76;118.99
67186;HTU21D;54116;53.518;49.398;2023-03-21T02:59:22;-0.69;118.99
67186;HTU21D;54116;53.518;49.398;2023-03-21T03:01:50;-0.65;118.99
67186;HTU21D;54116;53.518;49.398;2023-03-21T03:04:22;-0.57;118.99
67186;HTU21D;54116;53.518;49.398;2023-03-21T03:12:42;-0.42;118.99
67186;HTU21D;54116;53.518;49.398;2023-03-21T03:18:12;-0.26;118.99
67186;HTU21D;54116;53.518;49.398;2023-03-21T03:20:51;0.05;118.99
67186;HTU21D;54116;53.518;49.398;2023-03-21T03:26:34;1.46;118.99
67186;HTU21D;54116;53.518;49.398;2023-03-21T03:29:08;1.32;118.99
67186;HTU21D;54116;53.518;49.398;2023-03-21T03:31:45;1.37;118.99
67186;HTU21D;54116;53.518;49.398;2023-03-21T03:34:15;1.93;118.69
67186;HTU21D;54116;53.518;49.398;2023-03-21T03:36:47;2.16;114.99
67186;HTU21D;54116;53.518;49.398;2023-03-21T03:39:17;2.25;112.20
67186;HTU21D;54116;53.518;49.398;2023-03-21T03:41:56;2.31;110.26
67186;HTU21D;54116;53.518;49.398;2023-03-21T03:44:24;2.11;110.57
67186;HTU21D;54116;53.518;49.398;2023-03-21T03:47:10;2.23;109.65
67186;HTU21D;54116;53.518;49.398;2023-03-21T03:49:42;2.32;108.43
67186;HTU21D;54116;53.518;49.398;2023-03-21T03:52:19;2.41;108.36
67186;HTU21D;54116;53.518;49.398;2023-03-21T03:54:48;2.93;105.64
67186;HTU21D;54116;53.518;49.398;2023-03-21T03:57:17;3.30;102.98
67186;HTU21D;54116;53.518;49.398;2023-03-21T03:59:45;3.99;99.04
67186;HTU21D;54116;53.518;49.398;2023-03-21T04:02:14;4.62;95.84
67186;HTU21D;54116;53.518;49.398;2023-03-21T04:04:42;5.11;92.61
67186;HTU21D;54116;53.518;49.398;2023-03-21T04:07:08;6.11;86.37
67186;HTU21D;54116;53.518;49.398;2023-03-21T04:09:34;6.89;81.59
67186;HTU21D;54116;53.518;49.398;2023-03-21T04:12:01;7.45;77.83
67186;HTU21D;54116;53.518;49.398;2023-03-21T04:14:27;8.24;75.18
67186;HTU21D;54116;53.518;49.398;2023-03-21T04:16:54;8.95;71.09
67186;HTU21D;54116;53.518;49.398;2023-03-21T04:19:20;9.54;67.60
67186;HTU21D;54116;53.518;49.398;2023-03-21T04:21:47;9.81;67.43
67186;HTU21D;54116;53.518;49.398;2023-03-21T04:24:13;10.37;64.86
67186;HTU21D;54116;53.518;49.398;2023-03-21T04:26:40;11.09;62.53
67186;HTU21D;54116;53.518;49.398;2023-03-21T04:29:06;11.04;61.52
67186;HTU21D;54116;53.518;49.398;2023-03-21T04:31:33;10.79;61.64
67186;HTU21D;54116;53.518;49.398;2023-03-21T04:34:03;11.10;61.24
67186;HTU21D;54116;53.518;49.398;2023-03-21T04:36:30;11.16;61.34
67186;HTU21D;54116;53.518;49.398;2023-03-21T04:39:05;11.88;59.37
67186;HTU21D;54116;53.518;49.398;2023-03-21T04:41:38;12.61;56.70
67186;HTU21D;54116;53.518;49.398;2023-03-21T04:44:05;12.38;56.49
67186;HTU21D;54116;53.518;49.398;2023-03-21T04:46:32;11.71;58.64
67186;HTU21D;54116;53.518;49.398;2023-03-21T04:48:59;11.51;59.34
67186;HTU21D;54116;53.518;49.398;2023-03-21T04:51:25;11.76;58.13
67186;HTU21D;54116;53.518;49.398;2023-03-21T04:53:52;11.81;58.90
67186;HTU21D;54116;53.518;49.398;2023-03-21T04:56:27;12.15;56.78
67186;HTU21D;54116;53.518;49.398;2023-03-21T04:59:07;12.00;57.56
67186;HTU21D;54116;53.518;49.398;2023-03-21T05:01:34;11.88;58.11
67186;HTU21D;54116;53.518;49.398;2023-03-21T05:04:02;12.66;56.10
67186;HTU21D;54116;53.518;49.398;2023-03-21T05:06:29;13.19;54.01
67186;HTU21D;54116;53.518;49.398;2023-03-21T05:08:58;13.37;53.42
67186;HTU21D;54116;53.518;49.398;2023-03-21T05:11:28;12.89;55.74
67186;HTU21D;54116;53.518;49.398;2023-03-21T05:13:56;13.17;53.80
67186;HTU21D;54116;53.518;49.398;2023-03-21T05:16:22;12.94;54.58
67186;HTU21D;54116;53.518;49.398;2023-03-21T05:18:57;13.01;53.96
67186;HTU21D;54116;53.518;49.398;2023-03-21T05:21:24;12.79;55.24
67186;HTU21D;54116;53.518;49.398;2023-03-21T05:23:55;12.57;54.85
67186;HTU21D;54116;53.518;49.398;2023-03-21T05:26:23;10.15;62.39
67186;HTU21D;54116;53.518;49.398;2023-03-21T05:28:50;8.22;70.33
67186;HTU21D;54116;53.518;49.398;2023-03-21T05:31:17;9.89;66.11
67186;HTU21D;54116;53.518;49.398;2023-03-21T05:33:44;11.07;60.93
67186;HTU21D;54116;53.518;49.398;2023-03-21T05:36:11;11.14;60.73
67186;HTU21D;54116;53.518;49.398;2023-03-21T05:38:38;11.92;58.42
67186;HTU21D;54116;53.518;49.398;2023-03-21T05:41:14;12.13;58.29
67186;HTU21D;54116;53.518;49.398;2023-03-21T05:43:42;12.26;56.87
67186;HTU21D;54116;53.518;49.398;2023-03-21T05:46:09;12.43;57.12
67186;HTU21D;54116;53.518;49.398;2023-03-21T05:48:37;12.45;57.42
67186;HTU21D;54116;53.518;49.398;2023-03-21T05:51:04;12.76;55.54
67186;HTU21D;54116;53.518;49.398;2023-03-21T05:53:30;12.64;56.31
67186;HTU21D;54116;53.518;49.398;2023-03-21T05:55:57;11.98;57.89
67186;HTU21D;54116;53.518;49.398;2023-03-21T05:58:23;12.41;56.95
67186;HTU21D;54116;53.518;49.398;2023-03-21T06:00:49;12.23;57.55
67186;HTU21D;54116;53.518;49.398;2023-03-21T06:03:16;12.25;57.42
67186;HTU21D;54116;53.518;49.398;2023-03-21T06:05:42;12.23;57.34
67186;HTU21D;54116;53.518;49.398;2023-03-21T06:08:08;12.06;57.68
67186;HTU21D;54116;53.518;49.398;2023-03-21T06:10:36;12.03;56.92
67186;HTU21D;54116;53.518;49.398;2023-03-21T06:13:02;11.55;58.81
67186;HTU21D;54116;53.518;49.398;2023-03-21T06:15:29;12.04;58.54
67186;HTU21D;54116;53.518;49.398;2023-03-21T06:17:56;12.28;57.35
67186;HTU21D;54116;53.518;49.398;2023-03-21T06:20:22;12.03;58.00
67186;HTU21D;54116;53.518;49.398;2023-03-21T06:22:48;11.89;58.46
67186;HTU21D;54116;53.518;49.398;2023-03-21T06:25:14;11.68;59.17
67186;HTU21D;54116;53.518;49.398;2023-03-21T06:27:41;11.48;58.91
67186;HTU21D;54116;53.518;49.398;2023-03-21T06:30:08;11.23;60.54
67186;HTU21D;54116;53.518;49.398;2023-03-21T06:32:35;11.02;61.04
67186;HTU21D;54116;53.518;49.398;2023-03-21T06:35:01;10.94;60.97
67186;HTU21D;54116;53.518;49.398;2023-03-21T06:37:28;11.27;60.63
67186;HTU21D;54116;53.518;49.398;2023-03-21T06:39:54;10.86;60.73
67186;HTU21D;54116;53.518;49.398;2023-03-21T06:42:20;9.76;65.14
67186;HTU21D;54116;53.518;49.398;2023-03-21T06:44:46;9.32;67.63
67186;HTU21D;54116;53.518;49.398;2023-03-21T06:47:13;8.96;68.38
67186;HTU21D;54116;53.518;49.398;2023-03-21T06:49:39;8.65;69.49
67186;HTU21D;54116;53.518;49.398;2023-03-21T06:52:08;8.36;70.51
67186;HTU21D;54116;53.518;49.398;2023-03-21T06:54:34;8.37;71.39
67186;HTU21D;54116;53.518;49.398;2023-03-21T06:57:01;8.44;71.32
67186;HTU21D;54116;53.518;49.398;2023-03-21T06:59:27;8.38;71.24
67186;HTU21D;54116;53.518;49.398;2023-03-21T07:01:54;8.41;72.03
67186;HTU21D;54116;53.518;49.398;2023-03-21T07:04:20;8.26;70.91
67186;HTU21D;54116;53.518;49.398;2023-03-21T07:06:46;8.04;72.82
67186;HTU21D;54116;53.518;49.398;2023-03-21T07:09:14;7.97;72.80
67186;HTU21D;54116;53.518;49.398;2023-03-21T07:11:42;7.93;73.08
67186;HTU21D;54116;53.518;49.398;2023-03-21T07:14:09;7.97;73.38
67186;HTU21D;54116;53.518;49.398;2023-03-21T07:16:35;7.99;73.37
67186;HTU21D;54116;53.518;49.398;2023-03-21T07:19:01;8.06;73.34
67186;HTU21D;54116;53.518;49.398;2023-03-21T07:21:28;8.28;73.03
67186;HTU21D;54116;53.518;49.398;2023-03-21T07:23:54;8.33;71.29
67186;HTU21D;54116;53.518;49.398;2023-03-21T07:26:23;8.14;72.67
67186;HTU21D;54116;53.518;49.398;2023-03-21T07:28:49;8.17;73.99
67186;HTU21D;54116;53.518;49.398;2023-03-21T07:31:16;8.36;72.09
67186;HTU21D;54116;53.518;49.398;2023-03-21T07:33:42;8.48;71.75
67186;HTU21D;54116;53.518;49.398;2023-03-21T07:36:12;8.48;71.05
67186;HTU21D;54116;53.518;49.398;2023-03-21T07:38:43;8.26;71.49
67186;HTU21D;54116;53.518;49.398;2023-03-21T07:41:10;8.23;72.54
67186;HTU21D;54116;53.518;49.398;2023-03-21T07:43:37;8.39;73.25
67186;HTU21D;54116;53.518;49.398;2023-03-21T07:46:04;8.38;71.08
67186;HTU21D;54116;53.518;49.398;2023-03-21T07:48:30;8.56;72.30
67186;HTU21D;54116;53.518;49.398;2023-03-21T07:50:57;8.74;71.16
67186;HTU21D;54116;53.518;49.398;2023-03-21T07:53:23;8.79;70.68
67186;HTU21D;54116;53.518;49.398;2023-03-21T07:55:51;8.82;70.76
67186;HTU21D;54116;53.518;49.398;2023-03-21T07:58:17;9.00;70.81
67186;HTU21D;54116;53.518;49.398;2023-03-21T08:00:46;9.16;70.35
67186;HTU21D;54116;53.518;49.398;2023-03-21T08:03:12;9.29;68.27
67186;HTU21D;54116;53.518;49.398;2023-03-21T08:05:39;9.08;68.03
67186;HTU21D;54116;53.518;49.398;2023-03-21T08:08:06;9.03;68.14
67186;HTU21D;54116;53.518;49.398;2023-03-21T08:10:32;8.98;69.77
67186;HTU21D;54116;53.518;49.398;2023-03-21T08:12:59;8.97;68.16
67186;HTU21D;54116;53.518;49.398;2023-03-21T08:15:25;9.03;68.18
67186;HTU21D;54116;53.518;49.398;2023-03-21T08:17:52;9.06;68.90
67186;HTU21D;54116;53.518;49.398;2023-03-21T08:20:20;9.12;67.86
67186;HTU21D;54116;53.518;49.398;2023-03-21T08:22:49;9.08;68.61
67186;HTU21D;54116;53.518;49.398;2023-03-21T08:25:18;9.21;68.64
67186;HTU21D;54116;53.518;49.398;2023-03-21T08:27:47;9.30;66.94
67186;HTU21D;54116;53.518;49.398;2023-03-21T08:30:17;9.09;68.88
67186;HTU21D;54116;53.518;49.398;2023-03-21T08:32:43;9.29;68.81
67186;HTU21D;54116;53.518;49.398;2023-03-21T08:35:12;9.24;68.66
67186;HTU21D;54116;53.518;49.398;2023-03-21T08:37:39;9.25;68.55
67186;HTU21D;54116;53.518;49.398;2023-03-21T08:40:10;9.30;69.33
67186;HTU21D;54116;53.518;49.398;2023-03-21T08:42:38;9.45;68.76
67186;HTU21D;54116;53.518;49.398;2023-03-21T08:45:06;9.42;68.40
67186;HTU21D;54116;53.518;49.398;2023-03-21T08:47:33;9.44;68.88
67186;HTU21D;54116;53.518;49.398;2023-03-21T08:49:59;9.40;68.67
67186;HTU21D;54116;53.518;49.398;2023-03-21T08:52:26;9.35;68.23
67186;HTU21D;54116;53.518;49.398;2023-03-21T08:54:54;9.25;68.39
67186;HTU21D;54116;53.518;49.398;2023-03-21T08:57:20;9.29;69.66
67186;HTU21D;54116;53.518;49.398;2023-03-21T08:59:47;9.37;70.45
67186;HTU21D;54116;53.518;49.398;2023-03-21T09:02:15;9.57;67.40
67186;HTU21D;54116;53.518;49.398;2023-03-21T09:04:42;9.55;66.40
67186;HTU21D;54116;53.518;49.398;2023-03-21T09:07:10;9.38;67.22
67186;HTU21D;54116;53.518;49.398;2023-03-21T09:09:40;9.41;67.86
67186;HTU21D;54116;53.518;49.398;2023-03-21T09:12:07;9.48;69.29
67186;HTU21D;54116;53.518;49.398;2023-03-21T09:14:33;9.61;69.43
67186;HTU21D;54116;53.518;49.398;2023-03-21T09:17:00;9.76;68.47
67186;HTU21D;54116;53.518;49.398;2023-03-21T09:19:26;9.91;67.99
67186;HTU21D;54116;53.518;49.398;2023-03-21T09:21:53;9.78;69.23
67186;HTU21D;54116;53.518;49.398;2023-03-21T09:24:20;9.72;68.03
67186;HTU21D;54116;53.518;49.398;2023-03-21T09:26:46;9.65;68.17
67186;HTU21D;54116;53.518;49.398;2023-03-21T09:29:16;9.56;69.24
67186;HTU21D;54116;53.518;49.398;2023-03-21T09:31:44;9.59;68.97
67186;HTU21D;54116;53.518;49.398;2023-03-21T09:34:12;9.55;69.65
67186;HTU21D;54116;53.518;49.398;2023-03-21T09:36:40;9.77;68.19
67186;HTU21D;54116;53.518;49.398;2023-03-21T09:39:09;9.80;69.04
67186;HTU21D;54116;53.518;49.398;2023-03-21T09:49:48;10.12;68.29
67186;HTU21D;54116;53.518;49.398;2023-03-21T09:52:31;10.26;68.07
67186;HTU21D;54116;53.518;49.398;2023-03-21T09:54:59;10.19;67.94
67186;HTU21D;54116;53.518;49.398;2023-03-21T09:57:38;10.38;67.71
67186;HTU21D;54116;53.518;49.398;2023-03-21T10:00:14;10.41;67.46
67186;HTU21D;54116;53.518;49.398;2023-03-21T10:02:49;10.37;67.36
67186;HTU21D;54116;53.518;49.398;2023-03-21T10:07:52;10.48;68.08
67186;HTU21D;54116;53.518;49.398;2023-03-21T10:10:24;10.36;68.10
67186;HTU21D;54116;53.518;49.398;2023-03-21T10:12:53;10.53;68.45
67186;HTU21D;54116;53.518;49.398;2023-03-21T10:15:24;10.67;67.04
67186;HTU21D;54116;53.518;49.398;2023-03-21T10:18:12;10.57;67.43
67186;HTU21D;54116;53.518;49.398;2023-03-21T10:20:43;10.55;67.49
67186;HTU21D;54116;53.518;49.398;2023-03-21T10:23:14;10.54;67.91
67186;HTU21D;54116;53.518;49.398;2023-03-21T10:25:50;10.45;68.20
67186;HTU21D;54116;53.518;49.398;2023-03-21T10:28:23;10.63;69.51
67186;HTU21D;54116;53.518;49.398;2023-03-21T10:30:57;10.65;67.75
67186;HTU21D;54116;53.518;49.398;2023-03-21T10:33:28;10.71;68.79
67186;HTU21D;54116;53.518;49.398;2023-03-21T10:36:01;10.72;67.64
67186;HTU21D;54116;53.518;49.398;2023-03-21T10:38:28;10.74;68.91
67186;HTU21D;54116;53.518;49.398;2023-03-21T10:40:55;10.92;67.86
67186;HTU21D;54116;53.518;49.398;2023-03-21T10:45:53;11.04;67.89
67186;HTU21D;54116;53.518;49.398;2023-03-21T10:48:21;11.15;66.90
67186;HTU21D;54116;53.518;49.398;2023-03-21T10:50:51;11.14;67.27
67186;HTU21D;54116;53.518;49.398;2023-03-21T10:53:31;11.17;66.14
67186;HTU21D;54116;53.518;49.398;2023-03-21T10:56:00;11.24;66.69
67186;HTU21D;54116;53.518;49.398;2023-03-21T10:58:29;11.24;65.79
67186;HTU21D;54116;53.518;49.398;2023-03-21T11:01:02;11.24;66.09
67186;HTU21D;54116;53.518;49.398;2023-03-21T11:03:32;11.31;66.75
67186;HTU21D;54116;53.518;49.398;2023-03-21T11:06:05;11.45;65.32
67186;HTU21D;54116;53.518;49.398;2023-03-21T11:08:38;11.47;65.35
67186;HTU21D;54116;53.518;49.398;2023-03-21T11:11:07;11.38;63.92
67186;HTU21D;54116;53.518;49.398;2023-03-21T11:13:40;11.38;65.37
67186;HTU21D;54116;53.518;49.398;2023-03-21T11:16:21;11.60;64.24
67186;HTU21D;54116;53.518;49.398;2023-03-21T11:18:50;11.63;63.36
67186;HTU21D;54116;53.518;49.398;2023-03-21T11:21:18;11.55;63.57
67186;HTU21D;54116;53.518;49.398;2023-03-21T11:23:47;11.46;62.92
67186;HTU21D;54116;53.518;49.398;2023-03-21T11:26:20;11.58;62.54
67186;HTU21D;54116;53.518;49.398;2023-03-21T11:28:50;11.69;62.40
67186;HTU21D;54116;53.518;49.398;2023-03-21T11:31:16;11.76;61.72
67186;HTU21D;54116;53.518;49.398;2023-03-21T11:33:54;11.76;61.56
67186;HTU21D;54116;53.518;49.398;2023-03-21T11:38:50;11.79;60.02
67186;HTU21D;54116;53.518;49.398;2023-03-21T11:41:46;11.78;61.18
67186;HTU21D;54116;53.518;49.398;2023-03-21T11:44:29;11.83;61.19
67186;HTU21D;54116;53.518;49.398;2023-03-21T11:46:55;11.87;59.91
67186;HTU21D;54116;53.518;49.398;2023-03-21T11:49:23;11.76;60.70
67186;HTU21D;54116;53.518;49.398;2023-03-21T11:52:13;11.72;61.10
67186;HTU21D;54116;53.518;49.398;2023-03-21T12:11:28;12.13;59.22
67186;HTU21D;54116;53.518;49.398;2023-03-21T12:17:21;11.97;60.67
67186;HTU21D;54116;53.518;49.398;2023-03-21T12:20:05;11.91;60.15
67186;HTU21D;54116;53.518;49.398;2023-03-21T12:25:26;11.83;60.54
67186;HTU21D;54116;53.518;49.398;2023-03-21T12:31:14;11.78;58.98
67186;HTU21D;54116;53.518;49.398;2023-03-21T12:41:49;11.68;60.95
67186;HTU21D;54116;53.518;49.398;2023-03-21T12:44:20;11.66;60.78
67186;HTU21D;54116;53.518;49.398;2023-03-21T12:52:05;11.55;61.99
67186;HTU21D;54116;53.518;49.398;2023-03-21T12:54:40;11.55;62.05
67186;HTU21D;54116;53.518;49.398;2023-03-21T12:57:25;11.48;61.75
67186;HTU21D;54116;53.518;49.398;2023-03-21T13:03:01;11.47;63.56
67186;HTU21D;54116;53.518;49.398;2023-03-21T13:05:59;11.53;63.47
67186;HTU21D;54116;53.518;49.398;2023-03-21T13:08:40;11.47;63.27
67186;HTU21D;54116;53.518;49.398;2023-03-21T13:11:09;11.36;64.18
67186;HTU21D;54116;53.518;49.398;2023-03-21T13:18:53;11.33;64.92
67186;HTU21D;54116;53.518;49.398;2023-03-21T13:21:45;11.24;65.01
67186;HTU21D;54116;53.518;49.398;2023-03-21T13:24:24;11.19;65.20
67186;HTU21D;54116;53.518;49.398;2023-03-21T13:27:05;11.15;65.12
67186;HTU21D;54116;53.518;49.398;2023-03-21T13:29:41;11.10;65.40
67186;HTU21D;54116;53.518;49.398;2023-03-21T13:32:38;11.07;65.96
67186;HTU21D;54116;53.518;49.398;2023-03-21T13:35:20;11.03;66.35
67186;HTU21D;54116;53.518;49.398;2023-03-21T13:37:56;10.98;66.64
67186;HTU21D;54116;53.518;49.398;2023-03-21T13:40:25;10.90;67.12
67186;HTU21D;54116;53.518;49.398;2023-03-21T13:42:58;10.85;67.14
67186;HTU21D;54116;53.518;49.398;2023-03-21T13:48:03;10.78;67.46
67186;HTU21D;54116;53.518;49.398;2023-03-21T13:50:51;10.71;67.78
67186;HTU21D;54116;53.518;49.398;2023-03-21T13:53:20;10.59;67.97
67186;HTU21D;54116;53.518;49.398;2023-03-21T13:55:58;10.49;68.30
67186;HTU21D;54116;53.518;49.398;2023-03-21T13:58:37;10.39;68.63
67186;HTU21D;54116;53.518;49.398;2023-03-21T14:01:26;10.25;69.03
67186;HTU21D;54116;53.518;49.398;2023-03-21T14:04:17;10.15;69.16
67186;HTU21D;54116;53.518;49.398;2023-03-21T14:06:53;10.18;68.90
67186;HTU21D;54116;53.518;49.398;2023-03-21T14:09:35;10.13;68.65
67186;HTU21D;54116;53.518;49.398;2023-03-21T14:12:06;10.04;68.87
67186;HTU21D;54116;53.518;49.398;2023-03-21T14:14:38;9.89;69.33
67186;HTU21D;54116;53.518;49.398;2023-03-21T14:17:13;9.82;69.29
67186;HTU21D;54116;53.518;49.398;2023-03-21T14:19:40;9.79;69.29
67186;HTU21D;54116;53.518;49.398;2023-03-21T14:22:10;9.77;69.31
67186;HTU21D;54116;53.518;49.398;2023-03-21T14:24:38;9.72;69.20
67186;HTU21D;54116;53.518;49.398;2023-03-21T14:27:07;9.67;69.20
67186;HTU21D;54116;53.518;49.398;2023-03-21T14:29:34;9.57;69.08
67186;HTU21D;54116;53.518;49.398;2023-03-21T14:32:01;9.57;68.49
67186;HTU21D;54116;53.518;49.398;2023-03-21T14:34:31;9.54;68.48
67186;HTU21D;54116;53.518;49.398;2023-03-21T14:36:58;9.54;68.19
67186;HTU21D;54116;53.518;49.398;2023-03-21T14:39:29;9.46;68.15
67186;HTU21D;54116;53.518;49.398;2023-03-21T14:42:04;9.47;68.08
67186;HTU21D;54116;53.518;49.398;2023-03-21T14:44:47;9.44;67.79
67186;HTU21D;54116;53.518;49.398;2023-03-21T14:47:20;9.37;67.65
67186;HTU21D;54116;53.518;49.398;2023-03-21T14:49:48;9.36;67.14
67186;HTU21D;54116;53.518;49.398;2023-03-21T14:52:34;9.29;67.31
67186;HTU21D;54116;53.518;49.398;2023-03-21T14:55:02;9.22;67.64
67186;HTU21D;54116;53.518;49.398;2023-03-21T14:57:31;9.11;67.07
67186;HTU21D;54116;53.518;49.398;2023-03-21T15:00:00;9.06;67.21
67186;HTU21D;54116;53.518;49.398;2023-03-21T15:02:31;9.03;67.30
67186;HTU21D;54116;53.518;49.398;2023-03-21T15:05:14;8.95;67.46
67186;HTU21D;54116;53.518;49.398;2023-03-21T15:10:25;8.78;67.95
67186;HTU21D;54116;53.518;49.398;2023-03-21T15:12:57;8.74;68.37
67186;HTU21D;54116;53.518;49.398;2023-03-21T15:15:25;8.67;68.36
67186;HTU21D;54116;53.518;49.398;2023-03-21T15:17:52;8.66;68.17
67186;HTU21D;54116;53.518;49.398;2023-03-21T15:20:24;8.53;68.75
67186;HTU21D;54116;53.518;49.398;2023-03-21T15:22:54;8.39;69.71
67186;HTU21D;54116;53.518;49.398;2023-03-21T15:25:26;8.33;70.04
67186;HTU21D;54116;53.518;49.398;2023-03-21T15:27:54;8.21;70.61
67186;HTU21D;54116;53.518;49.398;2023-03-21T15:30:27;8.09;71.05
67186;HTU21D;54116;53.518;49.398;2023-03-21T15:32:55;7.91;71.55
67186;HTU21D;54116;53.518;49.398;2023-03-21T15:35:34;7.77;72.34
67186;HTU21D;54116;53.518;49.398;2023-03-21T15:38:01;7.77;73.27
67186;HTU21D;54116;53.518;49.398;2023-03-21T15:40:30;7.72;72.90
67186;HTU21D;54116;53.518;49.398;2023-03-21T15:43:14;7.63;74.01
67186;HTU21D;54116;53.518;49.398;2023-03-21T15:45:52;7.54;74.02
67186;HTU21D;54116;53.518;49.398;2023-03-21T15:48:28;7.43;74.64
67186;HTU21D;54116;53.518;49.398;2023-03-21T15:51:02;7.28;74.98
67186;HTU21D;54116;53.518;49.398;2023-03-21T15:53:32;7.19;75.87
67186;HTU21D;54116;53.518;49.398;2023-03-21T15:55:59;7.20;76.07
67186;HTU21D;54116;53.518;49.398;2023-03-21T15:58:40;7.16;76.91
67186;HTU21D;54116;53.518;49.398;2023-03-21T16:01:15;7.15;78.99
67186;HTU21D;54116;53.518;49.398;2023-03-21T16:03:45;7.22;78.83
67186;HTU21D;54116;53.518;49.398;2023-03-21T16:06:20;7.28;78.89
67186;HTU21D;54116;53.518;49.398;2023-03-21T16:08:53;7.33;79.40
67186;HTU21D;54116;53.518;49.398;2023-03-21T16:14:05;7.37;80.17
67186;HTU21D;54116;53.518;49.398;2023-03-21T16:16:32;7.47;79.69
67186;HTU21D;54116;53.518;49.398;2023-03-21T16:19:00;7.54;79.32
67186;HTU21D;54116;53.518;49.398;2023-03-21T16:21:28;7.54;79.39
67186;HTU21D;54116;53.518;49.398;2023-03-21T16:23:56;7.49;79.71
67186;HTU21D;54116;53.518;49.398;2023-03-21T16:26:25;7.59;79.59
67186;HTU21D;54116;53.518;49.398;2023-03-21T16:28:53;7.67;79.00
67186;HTU21D;54116;53.518;49.398;2023-03-21T16:31:21;7.62;78.94
67186;HTU21D;54116;53.518;49.398;2023-03-21T16:33:48;7.70;78.39
67186;HTU21D;54116;53.518;49.398;2023-03-21T16:36:17;7.81;77.64
67186;HTU21D;54116;53.518;49.398;2023-03-21T16:38:46;7.91;76.86
67186;HTU21D;54116;53.518;49.398;2023-03-21T16:41:15;7.96;76.83
67186;HTU21D;54116;53.518;49.398;2023-03-21T16:43:42;7.91;77.04
67186;HTU21D;54116;53.518;49.398;2023-03-21T16:46:19;7.83;77.31
67186;HTU21D;54116;53.518;49.398;2023-03-21T16:48:48;7.73;77.97
67186;HTU21D;54116;53.518;49.398;2023-03-21T16:51:29;7.65;78.17
67186;HTU21D;54116;53.518;49.398;2023-03-21T16:53:56;7.60;78.41
67186;HTU21D;54116;53.518;49.398;2023-03-21T16:56:36;7.58;78.52
67186;HTU21D;54116;53.518;49.398;2023-03-21T16:59:03;7.57;78.54
67186;HTU21D;54116;53.518;49.398;2023-03-21T17:01:31;7.52;78.67
67186;HTU21D;54116;53.518;49.398;2023-03-21T17:03:57;7.57;78.78
67186;HTU21D;54116;53.518;49.398;2023-03-21T17:06:26;7.60;78.56
67186;HTU21D;54116;53.518;49.398;2023-03-21T17:08:54;7.68;78.48